Airfield :
LOGIN :

Register | Disclaimer

   EN    FR    IT 

 










Legend :    VFR   Marginal VFR   IFR   Intensive IFR   Very Intensive IFR
Visi :
Ceiling :
>= 8 km
>= 3000ft
5 to 8 km
1000 to 3000 ft
1500m to 5 km
500 to 1000 ft
800 to 1500m
200 to 500 ft
< 800m
< 200 ft
Symbols :   Thunderstorms  Fog  Heavy snow  Heavy precipitations  Wind > 20 kt
SIGMETs :     Misc.  Thunderstorms  Icing  Turbulence  Mountain Waves  Volcanic Ashes







- Airport Elevation : 336 ft
- IATA code : GCI
- Download approach charts


EGJB - Guernsey

CURRENT METAR :
  • 131520Z 22011KT 9999 FEW018 13/08 Q1025

EXPIRED METARs :
  • 131450Z 22012KT 9999 FEW018 14/09 Q1025
  • 131420Z 23014KT 9999 SCT018 13/09 Q1025
  • 131350Z 23013KT 9999 FEW018 13/09 Q1025
  • 131320Z 24015KT 9999 SCT016 14/09 Q1025
  • 131250Z 24014KT 9999 SCT016 14/09 Q1025

TAF TAF EGJB
Valid from the 13 at 15:00 until the 14 at 00:00 UTC


131401Z 1315/1324 21016KT 9999 FEW015
ATIS : +44 1481 238 957
No reported NOTAMs for that airfield.



MET'MAP, your aeronautical weather chart ! - Copyright ORBIFLY December 2007 - Disclaimer

ORBIFLY MET'MAP TEAM :

Programming & Development : Alexandra Zaïnal
Concept & Development : Baudouin d'Aumeries
Co-Development & Prog : Marc-Olivier Méhu
Technical & hardware support : Manuel Goepfert

Contact : metmap@orbifly.com




SOURCES & CREDITS :

   NOAA